createdAt,value
2023-02-02T00:01:29.022Z,100125.88
2023-02-02T00:03:57.819Z,100130.94
2023-02-02T00:06:27.517Z,100127.81
2023-02-02T00:08:59.128Z,100136.25
2023-02-02T00:11:28.241Z,100132.44
2023-02-02T00:13:56.381Z,100124.47
2023-02-02T00:16:43.006Z,100126.47
2023-02-02T00:19:13.600Z,100107.28
2023-02-02T00:21:42.333Z,100092.31
2023-02-02T00:24:13.486Z,100095.78
2023-02-02T00:26:43.691Z,100105.19
2023-02-02T00:29:16.242Z,100099.22
2023-02-02T00:31:44.913Z,100099.66
2023-02-02T00:34:14.199Z,100086.31
2023-02-02T00:36:43.056Z,100078.66
2023-02-02T00:39:15.717Z,100084.53
2023-02-02T00:41:43.865Z,100077.50
2023-02-02T00:44:29.679Z,100076.81
2023-02-02T00:46:57.935Z,100073.25
2023-02-02T00:49:26.258Z,100070.97
2023-02-02T00:51:54.396Z,100076.50
2023-02-02T00:54:23.879Z,100061.31
2023-02-02T00:56:52.029Z,100069.75
2023-02-02T00:59:20.193Z,100078.38
2023-02-02T01:01:48.662Z,100074.38
2023-02-02T01:04:16.822Z,100076.06
2023-02-02T01:06:44.971Z,100071.41
2023-02-02T01:09:13.124Z,100074.81
2023-02-02T01:11:42.675Z,100077.66
2023-02-02T01:14:10.796Z,100086.47
2023-02-02T01:16:38.973Z,100082.69
2023-02-02T01:19:07.108Z,100077.16
2023-02-02T01:21:35.782Z,100077.22
2023-02-02T01:24:04.044Z,100080.84
2023-02-02T01:26:32.348Z,100077.19
2023-02-02T01:29:01.912Z,100068.38
2023-02-02T01:31:30.183Z,100073.94
2023-02-02T01:33:58.655Z,100078.88
2023-02-02T01:36:26.874Z,100085.28
2023-02-02T01:38:55.038Z,100070.38
2023-02-02T01:41:26.763Z,100077.41
2023-02-02T01:43:58.551Z,100092.50
2023-02-02T01:46:31.502Z,100081.59
2023-02-02T01:49:04.742Z,100084.34
2023-02-02T01:51:43.886Z,100079.22
2023-02-02T01:54:16.755Z,100084.34
2023-02-02T01:56:48.046Z,100090.38
2023-02-02T01:59:19.097Z,100092.22
2023-02-02T02:01:49.641Z,100096.75
2023-02-02T02:04:19.435Z,100095.78
2023-02-02T02:06:48.445Z,100105.34
2023-02-02T02:09:16.956Z,100092.63
2023-02-02T02:11:45.460Z,100081.72
2023-02-02T02:14:33.797Z,100099.19
2023-02-02T02:17:15.324Z,100108.09
2023-02-02T02:20:42.786Z,100094.09
2023-02-02T02:24:11.267Z,100095.72
2023-02-02T02:26:55.495Z,100093.53
2023-02-02T02:29:41.973Z,100113.53
2023-02-02T02:32:34.863Z,100124.78
2023-02-02T02:35:09.777Z,100116.16
2023-02-02T02:37:44.419Z,100112.53
2023-02-02T02:40:21.139Z,100099.78
2023-02-02T02:42:56.239Z,100120.69
2023-02-02T02:45:27.688Z,100128.63
2023-02-02T02:47:59.047Z,100139.97
2023-02-02T02:50:28.207Z,100154.03
2023-02-02T02:53:03.277Z,100155.47
2023-02-02T02:55:40.719Z,100158.72
2023-02-02T02:58:13.553Z,100159.88
2023-02-02T03:00:49.686Z,100157.63
2023-02-02T03:03:30.478Z,100150.63
2023-02-02T03:06:06.601Z,100165.41
2023-02-02T03:08:40.937Z,100178.06
2023-02-02T03:11:11.564Z,100174.91
2023-02-02T03:13:42.137Z,100185.03
2023-02-02T03:16:10.982Z,100192.34
2023-02-02T03:18:40.576Z,100183.09
2023-02-02T03:21:12.561Z,100186.88
2023-02-02T03:23:40.727Z,100194.41
2023-02-02T03:26:09.013Z,100186.56
2023-02-02T03:28:37.507Z,100193.56
2023-02-02T03:31:06.709Z,100203.13
2023-02-02T03:33:37.688Z,100214.69
2023-02-02T03:36:08.153Z,100212.81
2023-02-02T03:38:36.331Z,100207.50
2023-02-02T03:41:06.010Z,100216.28
2023-02-02T03:43:34.203Z,100215.22
2023-02-02T03:46:05.161Z,100219.63
2023-02-02T03:48:36.970Z,100214.38
2023-02-02T03:51:11.642Z,100225.63
2023-02-02T03:53:40.596Z,100240.72
2023-02-02T03:56:08.835Z,100247.75
2023-02-02T03:58:37.647Z,100248.59
2023-02-02T04:01:07.227Z,100257.63
2023-02-02T04:03:35.494Z,100259.31
2023-02-02T04:06:03.676Z,100263.00
2023-02-02T04:08:34.104Z,100262.72
2023-02-02T04:11:02.818Z,100272.34
2023-02-02T04:13:31.010Z,100285.84
2023-02-02T04:16:00.148Z,100285.47
2023-02-02T04:18:29.428Z,100290.19
2023-02-02T04:20:59.151Z,100299.00
2023-02-02T04:23:28.545Z,100294.88
2023-02-02T04:25:58.328Z,100312.41
2023-02-02T04:28:28.268Z,100295.00
2023-02-02T04:30:57.601Z,100300.78
2023-02-02T04:33:27.538Z,100327.25
2023-02-02T04:35:55.904Z,100335.00
2023-02-02T04:38:24.078Z,100324.22
2023-02-02T04:40:52.363Z,100349.91
2023-02-02T04:43:22.026Z,100343.94
2023-02-02T04:45:55.991Z,100355.63
2023-02-02T04:48:24.176Z,100356.78
2023-02-02T04:50:52.354Z,100361.19
2023-02-02T04:53:20.515Z,100384.13
2023-02-02T04:55:48.707Z,100381.59
2023-02-02T04:58:16.818Z,100390.78
2023-02-02T05:00:46.714Z,100389.28
2023-02-02T05:03:14.894Z,100387.72
2023-02-02T05:05:43.024Z,100403.59
2023-02-02T05:08:12.071Z,100400.97
2023-02-02T05:10:42.070Z,100421.25
2023-02-02T05:13:10.543Z,100403.84
2023-02-02T05:15:38.686Z,100414.69
2023-02-02T05:18:08.168Z,100419.69
2023-02-02T05:20:36.303Z,100435.66
2023-02-02T05:23:04.440Z,100435.34
2023-02-02T05:25:32.617Z,100443.44
2023-02-02T05:28:00.855Z,100449.72
2023-02-02T05:30:29.010Z,100453.38
2023-02-02T05:32:57.142Z,100461.47
2023-02-02T05:35:26.860Z,100471.06
2023-02-02T05:37:56.911Z,100471.41
2023-02-02T05:40:26.504Z,100469.69
2023-02-02T05:42:54.672Z,100475.69
2023-02-02T05:45:23.380Z,100466.16
2023-02-02T05:47:55.433Z,100484.16
2023-02-02T05:50:23.647Z,100490.28
2023-02-02T05:53:05.066Z,100500.19
2023-02-02T05:55:33.329Z,100508.38
2023-02-02T05:58:01.582Z,100518.03
2023-02-02T06:00:29.746Z,100512.88
2023-02-02T06:02:58.167Z,100519.59
2023-02-02T06:05:27.395Z,100525.72
2023-02-02T06:07:55.547Z,100533.44
2023-02-02T06:10:25.014Z,100538.44
2023-02-02T06:12:53.349Z,100544.56
2023-02-02T06:15:21.504Z,100551.31
2023-02-02T06:17:50.020Z,100551.28
2023-02-02T06:20:20.327Z,100559.16
2023-02-02T06:22:50.349Z,100564.56
2023-02-02T06:25:18.513Z,100567.22
2023-02-02T06:27:49.461Z,100574.97
2023-02-02T06:30:17.924Z,100588.91
2023-02-02T06:32:46.388Z,100593.94
2023-02-02T06:35:14.719Z,100588.50
2023-02-02T06:37:43.083Z,100593.03
2023-02-02T06:40:13.739Z,100601.84
2023-02-02T06:42:41.917Z,100610.84
2023-02-02T06:45:12.542Z,100606.56
2023-02-02T06:47:40.715Z,100609.09
2023-02-02T06:50:09.876Z,100606.47
2023-02-02T06:52:38.016Z,100589.19
2023-02-02T06:55:06.810Z,100620.69
2023-02-02T06:57:34.952Z,100625.94
2023-02-02T07:00:03.882Z,100616.41
2023-02-02T07:02:33.370Z,100627.97
2023-02-02T07:05:01.559Z,100624.75
2023-02-02T07:07:32.923Z,100631.63
2023-02-02T07:10:01.062Z,100637.63
2023-02-02T07:12:29.379Z,100638.13
2023-02-02T07:14:59.400Z,100646.75
2023-02-02T07:17:27.576Z,100656.13
2023-02-02T07:19:57.263Z,100651.69
2023-02-02T07:22:25.481Z,100659.50
2023-02-02T07:24:53.630Z,100665.53
2023-02-02T07:27:21.767Z,100674.00
2023-02-02T07:29:49.935Z,100674.84
2023-02-02T07:32:18.084Z,100678.56
2023-02-02T07:34:46.226Z,100676.69
2023-02-02T07:37:15.726Z,100676.44
2023-02-02T07:39:44.257Z,100684.97
2023-02-02T07:42:13.038Z,100689.19
2023-02-02T07:44:42.849Z,100691.81
2023-02-02T07:47:10.996Z,100689.84
2023-02-02T07:49:39.185Z,100692.50
2023-02-02T07:52:07.347Z,100688.97
2023-02-02T07:54:36.862Z,100691.75
2023-02-02T07:57:05.119Z,100687.94
2023-02-02T07:59:33.297Z,100687.69
2023-02-02T08:02:01.678Z,100691.06
2023-02-02T08:04:30.171Z,100696.31
2023-02-02T08:06:58.773Z,100703.00
2023-02-02T08:09:26.952Z,100709.22
2023-02-02T08:12:01.600Z,100706.31
2023-02-02T08:14:29.901Z,100706.16
2023-02-02T08:16:58.068Z,100708.69
2023-02-02T08:19:26.343Z,100717.22
2023-02-02T08:21:54.474Z,100723.09
2023-02-02T08:24:22.656Z,100727.78
2023-02-02T08:26:50.903Z,100726.63
2023-02-02T08:29:20.485Z,100729.03
2023-02-02T08:31:49.147Z,100734.13
2023-02-02T08:34:17.292Z,100734.13
2023-02-02T08:36:45.451Z,100741.16
2023-02-02T08:39:14.414Z,100744.00
2023-02-02T08:41:43.081Z,100739.16
2023-02-02T08:44:14.318Z,100755.16
2023-02-02T08:46:44.065Z,100755.78
2023-02-02T08:49:13.916Z,100753.38
2023-02-02T08:51:43.031Z,100775.22
2023-02-02T08:54:11.245Z,100773.97
2023-02-02T08:56:39.497Z,100779.88
2023-02-02T08:59:07.970Z,100783.25
2023-02-02T09:01:36.504Z,100778.25
2023-02-02T09:04:08.489Z,100785.50
2023-02-02T09:06:38.964Z,100790.84
2023-02-02T09:09:10.019Z,100789.00
2023-02-02T09:11:39.097Z,100793.16
2023-02-02T09:14:08.075Z,100804.84
2023-02-02T09:16:36.874Z,100808.63
2023-02-02T09:19:06.937Z,100809.94
2023-02-02T09:21:37.042Z,100818.81
2023-02-02T09:24:11.160Z,100824.91
2023-02-02T09:26:40.338Z,100829.97
2023-02-02T09:29:12.245Z,100836.28
2023-02-02T09:31:40.954Z,100841.31
2023-02-02T09:34:12.968Z,100841.75
2023-02-02T09:36:41.775Z,100839.03
2023-02-02T09:39:12.690Z,100843.09
2023-02-02T09:42:29.162Z,100843.28
2023-02-02T09:45:02.291Z,100842.25
2023-02-02T09:47:43.007Z,100850.94
2023-02-02T09:50:19.665Z,100847.16
2023-02-02T09:52:54.573Z,100851.94
2023-02-02T09:55:31.106Z,100863.41
2023-02-02T09:58:07.183Z,100876.09
2023-02-02T10:00:40.874Z,100900.75
2023-02-02T10:03:16.766Z,100909.75
2023-02-02T10:05:52.757Z,100908.91
2023-02-02T10:08:34.759Z,100903.41
2023-02-02T10:11:14.511Z,100904.94
2023-02-02T10:13:44.154Z,100907.78
2023-02-02T10:16:18.095Z,100907.91
2023-02-02T10:18:53.011Z,100909.19
2023-02-02T10:21:30.634Z,100918.06
2023-02-02T10:24:01.310Z,100903.06
2023-02-02T10:26:38.224Z,100901.94
2023-02-02T10:29:16.231Z,100910.03
2023-02-02T10:31:50.714Z,100907.91
2023-02-02T10:34:25.528Z,100924.44
2023-02-02T10:37:09.217Z,100913.69
2023-02-02T10:39:52.277Z,100915.38
2023-02-02T10:42:30.887Z,100903.91
2023-02-02T10:45:01.194Z,100901.91
2023-02-02T10:47:33.104Z,100907.81
2023-02-02T10:50:17.122Z,100892.69
2023-02-02T10:52:49.621Z,100890.09
2023-02-02T10:55:26.215Z,100900.03
2023-02-02T10:58:03.964Z,100906.44
2023-02-02T11:00:36.800Z,100906.31
2023-02-02T11:03:07.356Z,100912.19
2023-02-02T11:05:53.210Z,100908.88
2023-02-02T11:08:29.274Z,100916.34
2023-02-02T11:10:59.872Z,100915.03
2023-02-02T11:13:31.475Z,100926.97
2023-02-02T11:16:23.198Z,100926.25
2023-02-02T11:18:51.400Z,100924.41
2023-02-02T11:21:21.906Z,100920.78
2023-02-02T11:23:57.842Z,100927.75
2023-02-02T11:26:27.048Z,100934.09
2023-02-02T11:28:58.718Z,100948.03
2023-02-02T11:31:32.881Z,100963.75
2023-02-02T11:34:21.591Z,100999.31
2023-02-02T11:37:00.689Z,101010.34
2023-02-02T11:39:31.028Z,101025.28
2023-02-02T11:42:05.282Z,101033.63
2023-02-02T11:44:35.595Z,101037.81
2023-02-02T11:47:05.999Z,101030.09
2023-02-02T11:49:39.784Z,101028.69
2023-02-02T11:52:18.283Z,101037.88
2023-02-02T11:54:51.391Z,101026.94
2023-02-02T11:57:21.729Z,101039.09
2023-02-02T11:59:51.468Z,101037.50
2023-02-02T12:02:38.343Z,101040.25
2023-02-02T12:05:36.128Z,101033.44
2023-02-02T12:08:04.952Z,101050.59
2023-02-02T12:10:42.788Z,101036.69
2023-02-02T12:13:17.887Z,101032.72
2023-02-02T12:15:57.737Z,101035.03
2023-02-02T12:18:40.915Z,101042.84
2023-02-02T12:21:17.637Z,101031.16
2023-02-02T12:23:55.519Z,101050.28
2023-02-02T12:26:29.695Z,101051.19
2023-02-02T12:29:22.185Z,101052.31
2023-02-02T12:32:12.236Z,101055.72
2023-02-02T12:34:54.854Z,101052.28
2023-02-02T12:37:34.462Z,101053.47
2023-02-02T12:40:18.431Z,101063.44
2023-02-02T12:43:04.292Z,101049.59
2023-02-02T12:45:56.413Z,101059.09
2023-02-02T12:48:41.384Z,101063.22
2023-02-02T12:51:22.871Z,101063.84
2023-02-02T12:54:33.773Z,101075.38
2023-02-02T12:57:04.893Z,101070.44
2023-02-02T12:59:54.579Z,101070.31
2023-02-02T13:02:31.953Z,101074.53
2023-02-02T13:05:14.058Z,101080.09
2023-02-02T13:07:46.423Z,101077.28
2023-02-02T13:10:25.772Z,101082.16
2023-02-02T13:12:57.828Z,101081.31
2023-02-02T13:15:34.059Z,101086.53
2023-02-02T13:18:07.894Z,101077.31
2023-02-02T13:20:40.544Z,101098.78
2023-02-02T13:23:14.613Z,101116.38
2023-02-02T13:25:48.496Z,101127.00
2023-02-02T13:28:25.167Z,101139.88
2023-02-02T13:30:59.974Z,101149.69
2023-02-02T13:33:31.215Z,101155.13
2023-02-02T13:36:03.129Z,101159.63
2023-02-02T13:38:33.341Z,101164.41
2023-02-02T13:41:06.710Z,101185.91
2023-02-02T13:43:44.634Z,101183.50
2023-02-02T13:46:26.803Z,101194.44
2023-02-02T13:49:01.973Z,101200.41
2023-02-02T13:51:49.729Z,101206.50
2023-02-02T13:55:02.160Z,101210.25
2023-02-02T13:57:56.952Z,101211.31
2023-02-02T14:00:29.134Z,101215.75
2023-02-02T14:03:03.896Z,101235.31
2023-02-02T14:05:34.797Z,101217.16
2023-02-02T14:08:07.734Z,101237.03
2023-02-02T14:10:39.243Z,101245.81
2023-02-02T14:13:36.101Z,101251.06
2023-02-02T14:16:07.167Z,101257.41
2023-02-02T14:18:57.533Z,101263.28
2023-02-02T14:22:00.237Z,101273.84
2023-02-02T14:24:51.018Z,101263.28
2023-02-02T14:27:56.151Z,101279.16
2023-02-02T14:30:36.402Z,101282.88
2023-02-02T14:33:26.071Z,101287.63
2023-02-02T14:36:06.617Z,101293.56
2023-02-02T14:39:04.554Z,101298.28
2023-02-02T14:42:10.913Z,101302.50
2023-02-02T14:45:16.802Z,101305.47
2023-02-02T14:47:50.953Z,101321.69
2023-02-02T14:50:28.847Z,101334.81
2023-02-02T14:53:05.954Z,101346.38
2023-02-02T14:55:34.780Z,101362.25
2023-02-02T14:58:06.923Z,101357.13
2023-02-02T15:00:36.339Z,101370.88
2023-02-02T15:03:50.149Z,101381.75
2023-02-02T15:06:33.940Z,101382.94
2023-02-02T15:09:41.485Z,101397.63
2023-02-02T15:12:23.900Z,101404.75
2023-02-02T15:14:57.749Z,101427.88
2023-02-02T15:17:34.323Z,101429.47
2023-02-02T15:20:13.319Z,101430.50
2023-02-02T15:22:46.385Z,101439.53
2023-02-02T15:25:22.379Z,101457.94
2023-02-02T15:27:57.095Z,101450.06
2023-02-02T15:30:29.744Z,101455.56
2023-02-02T15:32:58.746Z,101466.13
2023-02-02T15:35:31.681Z,101466.91
2023-02-02T15:38:04.738Z,101487.41
2023-02-02T15:40:38.441Z,101487.72
2023-02-02T15:43:09.563Z,101495.41
2023-02-02T15:45:44.394Z,101501.00
2023-02-02T15:48:30.356Z,101499.09
2023-02-02T15:51:01.920Z,101505.97
2023-02-02T15:53:34.974Z,101514.03
2023-02-02T15:56:19.392Z,101526.59
2023-02-02T15:58:50.046Z,101528.25
2023-02-02T16:01:21.397Z,101538.53
2023-02-02T16:03:55.522Z,101537.69
2023-02-02T16:06:23.874Z,101549.34
2023-02-02T16:08:52.145Z,101552.03
2023-02-02T16:11:23.597Z,101552.63
2023-02-02T16:14:02.929Z,101559.84
2023-02-02T16:16:32.972Z,101560.06
2023-02-02T16:19:14.816Z,101562.78
2023-02-02T16:21:47.857Z,101562.97
2023-02-02T16:24:20.091Z,101572.03
2023-02-02T16:26:49.754Z,101579.22
2023-02-02T16:29:19.241Z,101584.41
2023-02-02T16:31:48.918Z,101585.06
2023-02-02T16:34:20.363Z,101585.16
2023-02-02T16:37:06.994Z,101588.75
2023-02-02T16:39:35.490Z,101589.56
2023-02-02T16:42:11.890Z,101587.91
2023-02-02T16:44:43.005Z,101595.91
2023-02-02T16:47:37.830Z,101608.84
2023-02-02T16:50:30.856Z,101601.00
2023-02-02T16:53:05.061Z,101605.13
2023-02-02T16:55:50.352Z,101612.19
2023-02-02T16:58:22.675Z,101618.22
2023-02-02T17:01:13.585Z,101622.72
2023-02-02T17:03:50.911Z,101633.25
2023-02-02T17:06:45.623Z,101639.38
2023-02-02T17:09:16.590Z,101648.97
2023-02-02T17:12:00.012Z,101642.91
2023-02-02T17:14:32.592Z,101642.94
2023-02-02T17:17:03.959Z,101662.16
2023-02-02T17:19:33.151Z,101661.34
2023-02-02T17:22:06.179Z,101664.81
2023-02-02T17:24:35.168Z,101659.59
2023-02-02T17:27:03.817Z,101664.81
2023-02-02T17:29:32.029Z,101658.75
2023-02-02T17:32:00.349Z,101670.97
2023-02-02T17:34:30.899Z,101675.34
2023-02-02T17:37:00.177Z,101682.31
2023-02-02T17:39:29.939Z,101681.47
2023-02-02T17:41:58.324Z,101684.94
2023-02-02T17:44:27.359Z,101689.28
2023-02-02T17:46:55.588Z,101694.50
2023-02-02T17:49:24.478Z,101703.19
2023-02-02T17:51:52.851Z,101705.78
2023-02-02T17:54:20.999Z,101699.72
2023-02-02T17:56:50.490Z,101712.78
2023-02-02T17:59:18.660Z,101712.78
2023-02-02T18:01:46.836Z,101718.00
2023-02-02T18:04:18.206Z,101721.50
2023-02-02T18:06:46.374Z,101717.13
2023-02-02T18:09:14.536Z,101719.72
2023-02-02T18:11:45.491Z,101717.13
2023-02-02T18:14:15.050Z,101715.41
2023-02-02T18:16:43.270Z,101721.47
2023-02-02T18:19:11.491Z,101727.56
2023-02-02T18:21:39.652Z,101730.16
2023-02-02T18:24:08.539Z,101721.47
2023-02-02T18:26:36.723Z,101720.59
2023-02-02T18:29:05.528Z,101725.81
2023-02-02T18:31:35.195Z,101722.31
2023-02-02T18:34:03.563Z,101726.63
2023-02-02T18:36:31.737Z,101735.28
2023-02-02T18:39:00.266Z,101727.53
2023-02-02T18:41:28.565Z,101732.75
2023-02-02T18:43:57.067Z,101736.25
2023-02-02T18:46:26.655Z,101725.81
2023-02-02T18:48:56.696Z,101725.78
2023-02-02T18:51:25.312Z,101717.13
2023-02-02T18:53:59.704Z,101721.47
2023-02-02T18:56:29.030Z,101727.56
2023-02-02T18:58:58.772Z,101723.19
2023-02-02T19:01:27.424Z,101725.81
2023-02-02T19:03:58.033Z,101727.56
2023-02-02T19:06:44.789Z,101711.91
2023-02-02T19:09:17.248Z,101718.84
2023-02-02T19:11:49.061Z,101718.88
2023-02-02T19:14:19.622Z,101728.41
2023-02-02T19:16:49.516Z,101715.38
2023-02-02T19:19:24.634Z,101719.69
2023-02-02T19:21:57.538Z,101719.72
2023-02-02T19:24:27.582Z,101718.84
2023-02-02T19:26:56.170Z,101728.41
2023-02-02T19:29:26.205Z,101726.63
2023-02-02T19:31:59.652Z,101721.38
2023-02-02T19:34:30.220Z,101731.81
2023-02-02T19:36:59.054Z,101733.47
2023-02-02T19:39:31.422Z,101732.69
2023-02-02T19:42:01.156Z,101735.31
2023-02-02T19:44:34.069Z,101739.63
2023-02-02T19:47:02.899Z,101737.84
2023-02-02T19:49:35.285Z,101744.75
2023-02-02T19:52:04.729Z,101762.13
2023-02-02T19:54:38.083Z,101740.38
2023-02-02T19:57:16.244Z,101748.22
2023-02-02T19:59:48.328Z,101744.78
2023-02-02T20:02:36.068Z,101742.09
2023-02-02T20:05:18.013Z,101744.78
2023-02-02T20:07:46.297Z,101744.78
2023-02-02T20:10:23.810Z,101746.47
2023-02-02T20:12:52.890Z,101756.09
2023-02-02T20:15:33.986Z,101753.47
2023-02-02T20:18:07.370Z,101752.59
2023-02-02T20:20:40.098Z,101753.44
2023-02-02T20:23:26.374Z,101756.88
2023-02-02T20:25:54.601Z,101750.88
2023-02-02T20:28:33.329Z,101754.38
2023-02-02T20:31:04.383Z,101759.53
2023-02-02T20:33:33.638Z,101761.31
2023-02-02T20:36:22.968Z,101763.91
2023-02-02T20:38:51.406Z,101766.53
2023-02-02T20:41:19.721Z,101752.69
2023-02-02T20:43:47.907Z,101750.06
2023-02-02T20:46:16.356Z,101758.75
2023-02-02T20:48:44.559Z,101755.28
2023-02-02T20:51:15.714Z,101748.41
2023-02-02T20:53:44.151Z,101755.34
2023-02-02T20:56:12.369Z,101747.53
2023-02-02T20:58:40.635Z,101752.72
2023-02-02T21:01:11.514Z,101744.88
2023-02-02T21:03:40.060Z,101736.19
2023-02-02T21:06:08.239Z,101742.28
2023-02-02T21:08:37.800Z,101739.69
2023-02-02T21:11:06.037Z,101737.91
2023-02-02T21:13:34.286Z,101730.09
2023-02-02T21:16:02.746Z,101732.72
2023-02-02T21:18:31.068Z,101734.38
2023-02-02T21:20:59.453Z,101733.50
2023-02-02T21:23:27.673Z,101725.72
2023-02-02T21:25:57.161Z,101724.84
2023-02-02T21:28:25.330Z,101731.72
2023-02-02T21:30:53.601Z,101730.97
2023-02-02T21:33:22.291Z,101723.97
2023-02-02T21:35:50.477Z,101718.81
2023-02-02T21:38:18.730Z,101715.34
2023-02-02T21:40:47.958Z,101719.66
2023-02-02T21:43:19.342Z,101720.44
2023-02-02T21:45:51.377Z,101722.19
2023-02-02T21:48:24.432Z,101725.69
2023-02-02T21:50:58.172Z,101731.88
2023-02-02T21:53:28.539Z,101733.59
2023-02-02T21:55:59.587Z,101737.00
2023-02-02T21:58:34.995Z,101736.19
2023-02-02T22:01:18.866Z,101739.63
2023-02-02T22:03:49.624Z,101726.59
2023-02-02T22:06:29.154Z,101723.16
2023-02-02T22:09:02.743Z,101721.41
2023-02-02T22:11:41.511Z,101715.34
2023-02-02T22:14:19.451Z,101720.56
2023-02-02T22:16:50.363Z,101715.34
2023-02-02T22:19:30.621Z,101698.00
2023-02-02T22:22:19.682Z,101692.78
2023-02-02T22:24:53.635Z,101687.56
2023-02-02T22:27:23.994Z,101699.72
2023-02-02T22:29:59.516Z,101691.03
2023-02-02T22:32:27.699Z,101697.13
2023-02-02T22:34:55.959Z,101691.91
2023-02-02T22:37:24.188Z,101692.78
2023-02-02T22:39:52.417Z,101691.91
2023-02-02T22:42:21.918Z,101691.91
2023-02-02T22:44:50.877Z,101697.97
2023-02-02T22:47:20.422Z,101695.38
2023-02-02T22:49:48.683Z,101691.06
2023-02-02T22:52:16.860Z,101689.31
2023-02-02T22:54:45.066Z,101685.84
2023-02-02T22:57:13.296Z,101687.56
2023-02-02T22:59:41.533Z,101689.31
2023-02-02T23:02:09.671Z,101686.72
2023-02-02T23:04:39.187Z,101686.72
2023-02-02T23:07:07.457Z,101699.75
2023-02-02T23:09:35.681Z,101694.53
2023-02-02T23:12:04.233Z,101680.63
2023-02-02T23:14:32.738Z,101683.25
2023-02-02T23:17:00.983Z,101686.72
2023-02-02T23:19:29.277Z,101678.03
2023-02-02T23:21:58.775Z,101686.72
2023-02-02T23:24:27.004Z,101687.59
2023-02-02T23:26:55.148Z,101681.50
2023-02-02T23:29:23.292Z,101679.75
2023-02-02T23:31:51.509Z,101683.25
2023-02-02T23:34:20.779Z,101671.06
2023-02-02T23:36:48.958Z,101671.94
2023-02-02T23:39:18.470Z,101667.56
2023-02-02T23:41:46.644Z,101664.97
2023-02-02T23:44:14.801Z,101649.34
2023-02-02T23:46:43.333Z,101654.53
2023-02-02T23:49:11.763Z,101651.09
2023-02-02T23:51:40.207Z,101666.75
2023-02-02T23:54:10.562Z,101662.34
2023-02-02T23:56:40.736Z,101652.81
2023-02-02T23:59:09.565Z,101650.22
